Time;durP1;ratioP1;P1;durP2;ratioP2;P2;SDS_P1;SDS_P2;PMS_P1;PMS_P2;Temp;Humidity;BMP_temperature;BMP_pressure;BME280_temperature;BME280_humidity;BME280_pressure;Samples;Min_cycle;Max_cycle;Signal;HPM_P1;HPM_P2
2021/03/29 00:01:49;;;;;;;6.90;3.80;;;;;;;3.72;77.21;98153.09;5018091;28;20045;-63
2021/03/29 00:04:15;;;;;;;8.80;4.63;;;;;;;3.72;77.65;98150.41;5011984;28;20143;-63
2021/03/29 00:06:42;;;;;;;7.57;4.20;;;;;;;3.70;77.74;98147.97;5003450;28;20069;-63
2021/03/29 00:09:08;;;;;;;5.80;4.03;;;;;;;3.64;76.17;98143.69;4999014;28;20037;-63
2021/03/29 00:11:35;;;;;;;6.13;3.90;;;;;;;3.62;76.75;98149.41;4981677;28;20118;-64
2021/03/29 00:14:02;;;;;;;7.70;4.13;;;;;;;3.67;76.95;98151.25;5003269;28;20041;-65
2021/03/29 00:16:31;;;;;;;7.15;4.13;;;;;;;3.62;76.76;98146.69;5000689;28;20483;-64
2021/03/29 00:18:57;;;;;;;6.88;4.15;;;;;;;3.62;76.68;98148.59;5004452;28;20038;-64
2021/03/29 00:21:22;;;;;;;14.95;4.50;;;;;;;3.72;76.94;98159.31;5004611;28;20215;-66
2021/03/29 00:23:48;;;;;;;11.07;4.20;;;;;;;3.71;77.39;98154.19;5008748;28;20046;-63
2021/03/29 00:26:14;;;;;;;7.78;3.67;;;;;;;3.68;77.53;98155.56;4993075;28;20773;-64
2021/03/29 00:28:39;;;;;;;7.05;4.43;;;;;;;3.52;76.32;98154.09;5002257;28;20133;-64
2021/03/29 00:31:06;;;;;;;7.55;3.85;;;;;;;3.56;77.64;98155.94;4996363;28;20157;-64
2021/03/29 00:33:33;;;;;;;9.63;4.00;;;;;;;3.54;78.19;98163.56;5001438;28;20483;-64
2021/03/29 00:35:59;;;;;;;7.60;3.70;;;;;;;3.52;77.24;98164.94;5002407;28;20105;-62
2021/03/29 00:38:26;;;;;;;8.35;4.30;;;;;;;3.37;77.93;98161.28;4995060;28;20046;-63
2021/03/29 00:40:55;;;;;;;8.57;4.13;;;;;;;3.43;77.32;98160.13;5001286;28;20053;-63
2021/03/29 00:43:27;;;;;;;8.80;4.78;;;;;;;3.35;78.04;98157.22;4996829;28;20057;-63
2021/03/29 00:45:54;;;;;;;12.23;5.38;;;;;;;3.23;78.60;98152.19;5002789;28;20041;-63
2021/03/29 00:48:22;;;;;;;11.13;5.03;;;;;;;3.32;79.59;98155.91;4996564;28;20643;-63
2021/03/29 00:51:02;;;;;;;10.43;5.82;;;;;;;3.21;79.85;98151.66;5004145;28;20041;-63
2021/03/29 00:53:28;;;;;;;;;;;;;;;3.19;79.35;98151.94;4984771;28;20454;-63
2021/03/29 00:55:54;;;;;;;15.27;5.90;;;;;;;3.23;79.64;98161.09;5006071;28;19924;-63
2021/03/29 00:58:25;;;;;;;10.65;5.10;;;;;;;3.28;79.73;98151.31;4999391;28;20046;-63
2021/03/29 01:00:57;;;;;;;9.32;4.95;;;;;;;3.25;79.38;98158.13;4998663;28;20125;-63
2021/03/29 01:03:28;;;;;;;12.52;4.88;;;;;;;3.23;79.68;98157.59;5001275;28;20827;-63
2021/03/29 01:06:08;;;;;;;9.43;4.63;;;;;;;3.29;78.96;98153.75;5005813;28;20407;-63
2021/03/29 01:08:35;;;;;;;8.63;4.60;;;;;;;3.24;79.23;98159.19;5006806;28;20041;-63
2021/03/29 01:11:05;;;;;;;10.25;4.75;;;;;;;3.07;79.24;98156.91;5005727;28;20530;-63
2021/03/29 01:13:38;;;;;;;9.68;5.00;;;;;;;3.00;79.87;98153.69;5005966;28;20052;-62
2021/03/29 01:16:06;;;;;;;8.02;4.30;;;;;;;3.00;79.13;98145.56;5003254;28;20136;-63
2021/03/29 01:18:33;;;;;;;9.88;5.47;;;;;;;3.01;79.74;98155.31;5005783;28;20410;-63
2021/03/29 01:21:31;;;;;;;9.90;4.80;;;;;;;3.00;80.05;98148.28;5011145;28;20044;-63
2021/03/29 01:24:04;;;;;;;8.98;5.20;;;;;;;2.96;79.86;98152.66;4999067;28;20050;-64
2021/03/29 01:26:33;;;;;;;11.18;4.70;;;;;;;2.77;79.05;98152.50;5004667;28;20506;-64
2021/03/29 01:29:00;;;;;;;10.40;4.73;;;;;;;2.71;80.47;98146.31;5004706;28;20391;-63
2021/03/29 01:31:26;;;;;;;10.05;4.00;;;;;;;2.74;81.20;98145.75;4996080;28;20046;-62
2021/03/29 01:33:52;;;;;;;6.13;4.15;;;;;;;2.75;80.97;98150.06;5005023;28;20049;-64
2021/03/29 01:36:19;;;;;;;10.88;5.18;;;;;;;2.78;81.59;98154.13;4998928;28;20038;-64
2021/03/29 01:38:47;;;;;;;15.55;5.20;;;;;;;2.80;81.38;98150.03;5006022;28;20173;-63
2021/03/29 01:41:14;;;;;;;7.97;4.90;;;;;;;2.87;81.02;98150.53;4983059;28;20049;-63
2021/03/29 01:43:40;;;;;;;9.43;5.40;;;;;;;2.82;80.68;98147.06;5005627;28;20127;-64
2021/03/29 01:46:06;;;;;;;9.10;4.68;;;;;;;2.72;80.98;98152.50;4987222;28;20051;-62
2021/03/29 01:48:32;;;;;;;8.30;4.95;;;;;;;2.68;81.65;98163.09;5000347;28;20041;-61
2021/03/29 01:50:57;;;;;;;9.45;4.85;;;;;;;2.74;81.46;98155.75;5006731;28;20046;-64
2021/03/29 01:53:25;;;;;;;7.93;4.30;;;;;;;2.72;81.39;98158.75;4999838;28;20054;-64
2021/03/29 01:55:51;;;;;;;9.75;4.15;;;;;;;2.70;80.75;98157.41;5005385;28;20048;-64
2021/03/29 01:58:17;;;;;;;8.63;4.88;;;;;;;2.60;81.47;98160.97;4999222;28;20376;-64
2021/03/29 02:00:49;;;;;;;15.90;5.28;;;;;;;2.15;82.07;98158.19;5006041;28;20045;-64
2021/03/29 02:03:15;;;;;;;8.55;4.60;;;;;;;1.93;83.66;98158.53;4982356;28;20052;-64
2021/03/29 02:05:42;;;;;;;7.60;4.45;;;;;;;1.81;84.18;98158.03;5004190;28;20053;-65
2021/03/29 02:08:09;;;;;;;7.93;4.50;;;;;;;1.63;85.49;98168.31;5001874;28;20084;-61
2021/03/29 02:10:36;;;;;;;10.82;4.88;;;;;;;1.59;85.28;98164.53;5024089;28;20688;-63
2021/03/29 02:13:07;;;;;;;9.57;4.90;;;;;;;1.69;85.91;98158.31;5000865;28;20069;-62
2021/03/29 02:15:34;;;;;;;7.80;4.40;;;;;;;1.71;85.14;98161.53;5007173;28;20080;-63
2021/03/29 02:18:02;;;;;;;11.93;5.30;;;;;;;1.55;85.50;98162.66;5010833;28;20072;-64
2021/03/29 02:20:32;;;;;;;9.65;5.32;;;;;;;1.52;85.07;98164.81;5001494;28;20045;-62
2021/03/29 02:22:59;;;;;;;10.77;4.50;;;;;;;1.64;85.58;98167.25;5003721;28;20081;-64
2021/03/29 02:25:27;;;;;;;7.55;4.43;;;;;;;1.79;85.12;98155.59;5000850;28;20627;-64
2021/03/29 02:27:53;;;;;;;9.23;4.70;;;;;;;1.87;84.90;98163.16;5004058;28;20042;-63
2021/03/29 02:30:28;;;;;;;8.50;4.68;;;;;;;1.96;83.73;98157.16;5004311;28;20038;-64
2021/03/29 02:32:55;;;;;;;10.65;5.05;;;;;;;1.96;83.29;98157.16;5013272;28;20042;-61
2021/03/29 02:35:24;;;;;;;10.48;4.18;;;;;;;1.98;83.89;98166.63;5006609;28;20065;-63
2021/03/29 02:37:56;;;;;;;7.88;4.20;;;;;;;2.07;82.82;98169.56;5004212;28;20081;-64
2021/03/29 02:40:24;;;;;;;9.70;5.22;;;;;;;2.05;83.19;98156.34;4998820;28;20503;-64
2021/03/29 02:42:55;;;;;;;8.55;4.40;;;;;;;2.03;83.20;98161.19;4987472;28;20050;-63
2021/03/29 02:45:26;;;;;;;7.75;4.07;;;;;;;2.14;83.14;98167.38;4999657;28;20034;-63
2021/03/29 02:47:56;;;;;;;12.30;4.22;;;;;;;2.10;82.07;98169.03;4987495;28;20069;-62
2021/03/29 02:50:24;;;;;;;14.52;4.82;;;;;;;1.78;82.09;98162.06;5005207;28;20141;-64
2021/03/29 02:52:53;;;;;;;8.32;4.03;;;;;;;1.44;83.59;98156.44;5012235;28;20057;-64
2021/03/29 02:55:20;;;;;;;9.27;4.45;;;;;;;1.28;85.09;98159.16;5001386;28;20044;-64
2021/03/29 02:57:47;;;;;;;10.82;4.85;;;;;;;1.06;86.89;98167.53;5003657;28;20088;-64
2021/03/29 03:00:17;;;;;;;7.22;5.03;;;;;;;1.04;87.09;98166.16;4998205;28;20128;-63
2021/03/29 03:02:43;;;;;;;;;;;;;;;1.06;86.94;98164.84;5003743;28;20065;-62
2021/03/29 03:05:10;;;;;;;8.10;4.85;;;;;;;1.02;86.81;98174.53;5000143;28;20760;-64
2021/03/29 03:07:36;;;;;;;8.32;5.10;;;;;;;1.01;85.97;98166.69;5004403;28;20112;-62
2021/03/29 03:10:05;;;;;;;9.48;4.95;;;;;;;0.92;87.21;98179.94;5003738;28;20042;-64
2021/03/29 03:12:31;;;;;;;8.75;4.68;;;;;;;0.91;87.23;98176.41;5002352;28;20052;-61
2021/03/29 03:14:57;;;;;;;13.40;5.35;;;;;;;1.11;86.90;98185.59;4984967;28;20521;-63
2021/03/29 03:17:23;;;;;;;6.53;4.05;;;;;;;1.20;87.07;98178.59;4999765;28;20153;-63
2021/03/29 03:19:48;;;;;;;11.23;4.93;;;;;;;1.30;86.41;98175.09;5003153;28;20132;-63
2021/03/29 03:22:14;;;;;;;6.75;4.68;;;;;;;1.39;85.09;98178.88;4998059;28;20585;-62
2021/03/29 03:24:40;;;;;;;9.73;4.30;;;;;;;1.32;85.11;98173.75;5002325;28;20068;-63
2021/03/29 03:27:08;;;;;;;6.65;4.05;;;;;;;1.32;85.04;98178.34;4999497;28;20057;-63
2021/03/29 03:29:41;;;;;;;7.20;4.80;;;;;;;1.21;84.24;98177.53;5002959;28;20073;-62
2021/03/29 03:32:14;;;;;;;8.63;4.25;;;;;;;1.03;84.16;98188.84;4978961;28;20140;-62
2021/03/29 03:34:39;;;;;;;7.82;4.15;;;;;;;1.19;85.08;98182.38;4982783;28;20108;-62
2021/03/29 03:37:08;;;;;;;6.57;4.35;;;;;;;1.12;84.57;98179.94;4977976;28;20484;-62
2021/03/29 03:39:34;;;;;;;9.73;4.53;;;;;;;1.00;84.81;98178.59;4982132;28;20058;-62
2021/03/29 03:42:01;;;;;;;10.38;4.78;;;;;;;0.90;84.81;98174.78;4989494;28;20034;-63
2021/03/29 03:44:29;;;;;;;7.68;4.65;;;;;;;0.78;85.69;98176.13;4998538;28;20400;-63
2021/03/29 03:46:55;;;;;;;8.73;4.38;;;;;;;0.78;86.71;98168.84;5001623;28;20042;-62
2021/03/29 03:49:23;;;;;;;5.40;4.43;;;;;;;0.89;86.43;98175.06;4997136;28;20487;-62
2021/03/29 03:51:49;;;;;;;10.02;4.75;;;;;;;0.89;86.92;98180.44;5002322;28;20034;-62
2021/03/29 03:54:17;;;;;;;7.47;4.38;;;;;;;1.00;86.76;98186.69;4991916;28;20129;-62
2021/03/29 03:56:43;;;;;;;9.30;4.90;;;;;;;1.17;86.01;98178.31;4993870;28;20045;-62
2021/03/29 03:59:09;;;;;;;10.68;4.43;;;;;;;1.25;84.83;98186.69;4986478;28;20128;-61
2021/03/29 04:02:04;;;;;;;6.72;4.38;;;;;;;1.17;84.60;98187.25;4997604;28;20050;-61
2021/03/29 04:04:30;;;;;;;9.48;4.70;;;;;;;1.18;84.80;98188.03;4992461;28;20517;-61
2021/03/29 04:06:57;;;;;;;13.60;5.30;;;;;;;1.18;84.59;98183.44;4994793;28;20046;-63
2021/03/29 04:09:30;;;;;;;9.68;4.93;;;;;;;1.25;84.83;98188.59;4995546;28;20142;-63
2021/03/29 04:11:55;;;;;;;7.82;5.07;;;;;;;1.26;84.16;98195.59;4983650;28;20056;-63
2021/03/29 04:14:20;;;;;;;10.30;4.68;;;;;;;1.34;83.80;98198.56;4993043;28;20045;-63
2021/03/29 04:16:46;;;;;;;10.27;4.70;;;;;;;1.30;83.54;98202.91;5004263;28;20070;-65
2021/03/29 04:19:11;;;;;;;9.38;4.60;;;;;;;1.21;83.71;98203.72;4992510;28;20048;-64
2021/03/29 04:21:37;;;;;;;16.25;6.55;;;;;;;1.16;84.28;98198.31;5012857;28;20041;-65
2021/03/29 04:24:02;;;;;;;10.85;6.45;;;;;;;1.07;84.35;98204.22;5030885;28;20045;-62
2021/03/29 04:26:28;;;;;;;11.93;5.65;;;;;;;1.00;84.34;98206.38;5035301;28;20077;-62
2021/03/29 04:28:53;;;;;;;11.07;5.50;;;;;;;0.99;85.10;98199.38;5004756;28;20042;-63
2021/03/29 04:31:19;;;;;;;8.35;4.75;;;;;;;1.01;84.88;98207.16;4996251;28;20545;-63
2021/03/29 04:33:44;;;;;;;10.18;5.50;;;;;;;0.93;84.52;98205.81;4996532;28;20046;-63
2021/03/29 04:36:09;;;;;;;9.98;5.65;;;;;;;0.83;84.83;98203.09;4996925;28;20266;-62
2021/03/29 04:38:35;;;;;;;11.43;5.00;;;;;;;0.82;85.26;98206.88;5001699;28;20053;-64
2021/03/29 04:41:00;;;;;;;16.05;5.13;;;;;;;0.86;84.83;98207.94;5001698;28;20100;-63
2021/03/29 04:43:26;;;;;;;9.95;5.13;;;;;;;1.02;84.24;98211.50;4995244;28;20050;-64
2021/03/29 04:45:52;;;;;;;11.73;5.45;;;;;;;1.08;84.12;98210.41;5002316;28;20077;-62
2021/03/29 04:48:18;;;;;;;8.93;5.10;;;;;;;1.11;83.61;98212.59;4996873;28;20073;-62
2021/03/29 04:50:43;;;;;;;10.20;4.40;;;;;;;1.16;83.89;98214.50;5001761;28;20117;-63
2021/03/29 04:53:09;;;;;;;8.75;4.32;;;;;;;1.17;83.78;98216.09;4995930;28;20564;-64
2021/03/29 04:55:34;;;;;;;7.63;4.25;;;;;;;1.16;83.36;98223.41;4998306;28;20616;-63
2021/03/29 04:58:00;;;;;;;7.80;4.20;;;;;;;1.11;82.95;98220.69;4996779;28;20045;-62
2021/03/29 05:00:25;;;;;;;9.18;4.50;;;;;;;1.10;83.34;98219.09;4992697;28;20054;-64
2021/03/29 05:02:50;;;;;;;10.18;4.68;;;;;;;1.02;83.83;98225.78;5009953;28;20046;-63
2021/03/29 05:05:16;;;;;;;13.15;5.05;;;;;;;0.88;83.44;98220.13;5001886;28;20046;-63
2021/03/29 05:07:44;;;;;;;8.32;4.38;;;;;;;0.84;84.10;98219.00;4997093;28;20049;-62
2021/03/29 05:10:11;;;;;;;8.07;4.50;;;;;;;0.93;84.27;98222.00;4992355;28;20522;-62
2021/03/29 05:12:37;;;;;;;8.05;4.40;;;;;;;0.92;83.93;98225.78;5000754;28;20052;-63
2021/03/29 05:15:03;;;;;;;15.23;4.68;;;;;;;1.01;84.12;98226.06;4993643;28;20046;-61
2021/03/29 05:17:29;;;;;;;9.90;4.32;;;;;;;1.08;83.56;98232.00;4987161;28;20053;-63
2021/03/29 05:19:54;;;;;;;12.93;5.65;;;;;;;1.19;83.79;98230.13;5000548;28;20046;-65
2021/03/29 05:22:19;;;;;;;10.88;4.70;;;;;;;1.30;83.10;98223.69;4996918;28;20449;-63
2021/03/29 05:24:45;;;;;;;9.52;4.75;;;;;;;1.51;82.22;98230.72;5000507;28;20057;-64
2021/03/29 05:27:10;;;;;;;7.97;3.50;;;;;;;1.87;81.98;98227.16;4995419;28;20042;-65
2021/03/29 05:29:43;;;;;;;8.13;5.07;;;;;;;2.39;79.68;98231.38;4999229;28;20052;-64
2021/03/29 05:32:15;;;;;;;7.95;3.97;;;;;;;3.18;76.83;98239.66;4978277;28;20048;-64
2021/03/29 05:34:45;;;;;;;7.13;3.80;;;;;;;4.10;72.82;98235.38;4993192;28;20601;-63
2021/03/29 05:37:10;;;;;;;13.63;4.53;;;;;;;4.89;68.90;98242.38;4999121;28;20041;-64
2021/03/29 05:39:37;;;;;;;7.55;3.65;;;;;;;5.22;67.01;98232.44;5004500;28;20293;-64
2021/03/29 05:42:04;;;;;;;9.00;3.42;;;;;;;5.70;65.40;98234.91;4986101;28;20046;-61
2021/03/29 05:44:29;;;;;;;15.77;6.95;;;;;;;6.41;62.82;98231.25;5011957;28;20041;-63
2021/03/29 05:46:55;;;;;;;8.85;3.47;;;;;;;6.99;60.47;98233.34;5009674;28;20056;-64
2021/03/29 05:49:21;;;;;;;8.38;3.17;;;;;;;7.73;57.08;98234.94;5000641;28;20073;-64
2021/03/29 05:51:46;;;;;;;7.75;3.08;;;;;;;7.92;58.04;98234.72;4999977;28;20042;-62
2021/03/29 05:54:12;;;;;;;7.63;3.30;;;;;;;8.61;57.43;98237.03;4991779;28;20103;-62
2021/03/29 05:56:41;;;;;;;6.57;3.28;;;;;;;9.73;52.08;98237.50;4998720;28;20107;-64
2021/03/29 05:59:53;;;;;;;7.47;3.65;;;;;;;10.19;49.81;98237.09;4990588;28;20049;-64
2021/03/29 06:01:56;;;;;;;11.13;2.65;;;;;;;10.92;48.60;98250.69;4999343;28;20444;-64
2021/03/29 06:04:45;;;;;;;6.65;3.35;;;;;;;10.90;47.72;98255.72;4981430;28;20230;-63
2021/03/29 06:07:20;;;;;;;6.57;3.08;;;;;;;11.04;47.85;98258.22;4976407;28;20104;-63
2021/03/29 06:09:48;;;;;;;5.38;2.80;;;;;;;11.50;46.68;98261.94;5000639;28;20099;-64
2021/03/29 06:12:15;;;;;;;6.35;3.42;;;;;;;12.23;45.16;98258.72;4995418;28;20034;-64
2021/03/29 06:14:43;;;;;;;5.55;2.80;;;;;;;12.81;42.40;98261.44;4998877;28;20050;-64
2021/03/29 06:17:20;;;;;;;6.10;3.92;;;;;;;12.90;42.84;98264.06;4992711;28;20479;-64
2021/03/29 06:20:15;;;;;;;8.73;3.20;;;;;;;12.96;42.25;98259.16;5001658;28;20041;-64
2021/03/29 06:22:41;;;;;;;8.18;2.97;;;;;;;13.17;42.52;98270.03;4986296;28;20487;-64
2021/03/29 06:25:14;;;;;;;7.15;3.80;;;;;;;13.11;42.43;98272.22;4991836;28;20053;-61
2021/03/29 06:27:57;;;;;;;7.05;3.20;;;;;;;13.60;41.98;98271.38;4992525;28;20041;-64
2021/03/29 06:30:37;;;;;;;6.97;3.78;;;;;;;14.13;40.58;98272.09;4997668;28;20246;-63
2021/03/29 06:33:15;;;;;;;10.30;2.95;;;;;;;14.63;39.67;98272.63;5000805;28;20447;-63
2021/03/29 06:35:47;;;;;;;6.97;3.55;;;;;;;14.83;39.01;98275.47;5002757;28;20052;-64
2021/03/29 06:38:17;;;;;;;8.40;3.53;;;;;;;13.59;41.02;98272.50;4997077;28;20522;-61
2021/03/29 06:40:51;;;;;;;8.40;3.40;;;;;;;14.22;40.96;98268.38;5013316;28;20056;-64
2021/03/29 06:43:32;;;;;;;8.73;3.05;;;;;;;13.03;42.08;98270.38;4999874;28;20092;-62
2021/03/29 06:46:00;;;;;;;9.27;3.63;;;;;;;14.64;40.93;98276.16;4994267;28;20155;-62
2021/03/29 06:48:30;;;;;;;4.80;3.08;;;;;;;15.43;38.81;98272.53;4998345;28;20378;-63
2021/03/29 06:51:03;;;;;;;;;;;;;;;16.38;36.76;98266.59;5004070;28;20504;-62
2021/03/29 06:53:28;;;;;;;7.55;3.45;;;;;;;16.39;36.04;98264.66;5013464;28;19921;-63
2021/03/29 06:55:57;;;;;;;10.95;3.40;;;;;;;16.85;35.81;98263.88;4998377;28;20049;-63
2021/03/29 06:58:26;;;;;;;9.30;4.75;;;;;;;17.32;34.93;98266.22;4997565;28;20057;-63
2021/03/29 07:00:56;;;;;;;6.97;3.10;;;;;;;18.09;34.02;98261.28;4988255;28;20108;-63
2021/03/29 07:03:23;;;;;;;8.43;3.92;;;;;;;16.47;36.30;98266.38;4996456;28;20060;-63
2021/03/29 07:05:49;;;;;;;5.97;3.72;;;;;;;16.55;36.03;98261.78;5003193;28;20046;-63
2021/03/29 07:08:16;;;;;;;8.07;3.47;;;;;;;15.69;37.14;98271.94;4996257;28;20061;-62
2021/03/29 07:10:41;;;;;;;9.43;5.15;;;;;;;15.85;36.57;98269.13;5002104;28;20056;-62
2021/03/29 07:13:08;;;;;;;6.32;3.90;;;;;;;15.58;38.56;98279.97;4996367;28;20042;-61
2021/03/29 07:15:36;;;;;;;7.53;4.82;;;;;;;14.93;40.40;98276.88;5000922;28;20060;-62
2021/03/29 07:18:02;;;;;;;8.07;4.45;;;;;;;14.76;40.97;98276.09;4995832;28;20446;-60
2021/03/29 07:20:29;;;;;;;9.20;4.03;;;;;;;15.37;38.33;98283.06;4994047;28;20041;-62
2021/03/29 07:22:55;;;;;;;11.95;3.95;;;;;;;16.74;36.00;98277.50;5001192;28;20053;-62
2021/03/29 07:25:22;;;;;;;7.72;3.22;;;;;;;16.78;36.30;98281.94;4996203;28;20060;-62
2021/03/29 07:27:51;;;;;;;4.60;2.90;;;;;;;18.83;32.63;98278.31;5002464;28;20038;-62
2021/03/29 07:30:19;;;;;;;5.70;3.00;;;;;;;18.43;33.63;98286.22;4993663;28;20132;-63
2021/03/29 07:32:55;;;;;;;5.38;3.50;;;;;;;18.10;33.39;98284.28;5001720;28;20129;-63
2021/03/29 07:35:22;;;;;;;11.35;3.85;;;;;;;17.73;34.58;98288.53;4988785;28;20045;-63
2021/03/29 07:37:56;;;;;;;13.70;3.65;;;;;;;19.18;30.34;98285.34;4996399;28;20042;-63
2021/03/29 07:40:22;;;;;;;6.25;3.90;;;;;;;17.24;31.72;98292.19;4996774;28;20133;-60
2021/03/29 07:42:54;;;;;;;5.80;3.45;;;;;;;16.46;34.09;98295.19;5000320;28;20046;-64
2021/03/29 07:45:24;;;;;;;8.65;3.60;;;;;;;17.55;32.11;98288.28;4988881;28;20054;-65
2021/03/29 07:47:54;;;;;;;7.75;2.95;;;;;;;19.22;29.93;98292.50;4992806;28;20081;-64
2021/03/29 07:50:26;;;;;;;9.90;3.28;;;;;;;20.11;28.40;98298.97;4976916;28;20038;-64
2021/03/29 07:52:55;;;;;;;4.90;2.55;;;;;;;21.40;25.60;98299.19;4993679;28;20054;-63
2021/03/29 07:55:24;;;;;;;5.93;3.10;;;;;;;20.50;26.26;98303.88;4984324;28;20046;-64
2021/03/29 07:57:55;;;;;;;8.75;2.53;;;;;;;21.40;25.14;98293.63;5002667;28;20061;-64
2021/03/29 08:00:23;;;;;;;8.93;2.47;;;;;;;20.65;26.11;98299.16;4992714;28;20034;-64
2021/03/29 08:02:55;;;;;;;7.22;2.35;;;;;;;16.67;33.07;98308.59;5014790;28;20046;-64
2021/03/29 08:05:35;;;;;;;6.00;2.35;;;;;;;15.31;34.05;98301.06;5002341;28;20199;-63
2021/03/29 08:08:03;;;;;;;9.00;3.00;;;;;;;18.13;31.25;98297.38;4998712;28;20050;-63
2021/03/29 08:11:09;;;;;;;6.70;2.88;;;;;;;19.93;29.35;98302.47;4981731;28;20046;-64
2021/03/29 08:13:42;;;;;;;4.45;2.17;;;;;;;20.02;26.74;98302.94;4999682;28;20038;-63
2021/03/29 08:16:13;;;;;;;4.65;2.05;;;;;;;18.87;28.72;98299.38;4990280;28;20121;-63
2021/03/29 08:19:06;;;;;;;6.07;2.55;;;;;;;15.87;33.65;98305.47;5001770;28;20399;-63
2021/03/29 08:21:50;;;;;;;9.00;2.65;;;;;;;16.31;34.04;98304.38;5000236;28;20045;-64
2021/03/29 08:24:20;;;;;;;5.63;2.38;;;;;;;19.48;29.65;98304.56;4978877;28;20124;-63
2021/03/29 08:26:46;;;;;;;6.05;2.50;;;;;;;20.14;27.92;98295.44;5002281;28;20102;-63
2021/03/29 08:29:29;;;;;;;5.13;2.13;;;;;;;17.94;31.50;98306.66;4990711;28;20033;-64
2021/03/29 08:31:59;;;;;;;6.57;2.90;;;;;;;19.25;30.12;98304.84;5000490;28;20046;-63
2021/03/29 08:34:26;;;;;;;5.45;2.88;;;;;;;20.10;27.51;98300.97;4977993;28;20081;-64
2021/03/29 08:36:55;;;;;;;11.35;2.67;;;;;;;20.98;26.28;98307.16;5001725;28;20084;-64
2021/03/29 08:39:21;;;;;;;7.33;2.30;;;;;;;19.25;27.43;98310.41;4995166;28;20045;-64
2021/03/29 08:41:52;;;;;;;4.72;2.45;;;;;;;14.73;35.72;98315.44;5001252;28;20095;-63
2021/03/29 08:44:18;;;;;;;4.70;2.20;;;;;;;17.44;31.79;98317.00;4995675;28;20406;-63
2021/03/29 08:46:46;;;;;;;4.57;2.40;;;;;;;17.50;31.89;98324.63;4999194;28;20042;-63
2021/03/29 08:49:12;;;;;;;5.65;2.30;;;;;;;17.49;32.29;98316.69;4993995;28;20510;-63
2021/03/29 08:51:39;;;;;;;9.73;3.03;;;;;;;19.16;30.90;98313.50;5000669;28;20038;-63
2021/03/29 08:54:09;;;;;;;4.75;2.10;;;;;;;20.80;27.15;98317.50;4998600;28;20092;-63
2021/03/29 08:56:36;;;;;;;5.20;2.20;;;;;;;;;;5010639;28;20487;-63
2021/03/29 08:59:01;;;;;;;4.93;2.15;;;;;;;18.60;28.75;98317.28;4983628;28;20424;-62
2021/03/29 09:01:28;;;;;;;5.97;2.20;;;;;;;20.30;27.72;98314.56;4977510;28;20045;-63
2021/03/29 09:04:03;;;;;;;5.80;2.40;;;;;;;21.69;25.59;98302.75;5000614;28;20104;-64
2021/03/29 09:06:31;;;;;;;5.70;2.30;;;;;;;19.32;28.21;98307.66;4982474;28;20050;-63
2021/03/29 09:09:17;;;;;;;4.22;1.73;;;;;;;18.64;27.65;98312.59;5001267;28;20487;-62
2021/03/29 09:11:47;;;;;;;3.97;1.70;;;;;;;17.78;28.94;98317.91;5003336;28;20482;-63
2021/03/29 09:14:19;;;;;;;7.82;3.10;;;;;;;18.95;26.13;98316.88;4999629;28;20038;-62
2021/03/29 09:16:45;;;;;;;6.10;2.50;;;;;;;17.57;28.23;98316.44;5005259;28;20064;-62
2021/03/29 09:19:15;;;;;;;6.13;2.20;;;;;;;16.74;30.48;98314.25;4998251;28;20572;-62
2021/03/29 09:21:42;;;;;;;3.22;1.90;;;;;;;16.36;30.81;98312.38;4998608;28;20045;-62
2021/03/29 09:24:22;;;;;;;7.63;2.15;;;;;;;18.85;27.72;98314.81;4999725;28;20045;-62
2021/03/29 09:26:56;;;;;;;3.83;1.90;;;;;;;21.03;24.15;98314.34;5005527;28;20562;-62
2021/03/29 09:29:38;;;;;;;5.60;1.80;;;;;;;21.96;22.79;98307.84;5000429;28;20557;-63
2021/03/29 09:32:13;;;;;;;3.97;1.80;;;;;;;21.73;22.82;98314.69;4997439;28;20654;-62
2021/03/29 09:34:39;;;;;;;3.53;1.50;;;;;;;20.62;24.07;98328.59;5005172;28;20386;-63
2021/03/29 09:37:21;;;;;;;4.97;1.73;;;;;;;20.60;24.49;98320.63;5000350;28;20490;-62
2021/03/29 09:39:47;;;;;;;5.38;2.00;;;;;;;22.09;22.83;98310.97;5005115;28;20133;-63
2021/03/29 09:42:16;;;;;;;4.97;2.72;;;;;;;22.51;24.72;98312.81;5000274;28;20383;-63
2021/03/29 09:44:43;;;;;;;13.20;3.40;;;;;;;22.17;26.00;98318.13;5017981;28;20048;-63
2021/03/29 09:47:09;;;;;;;9.90;2.65;;;;;;;22.42;26.05;98325.63;5003193;28;20304;-63
2021/03/29 09:49:48;;;;;;;4.65;2.30;;;;;;;21.50;26.67;98322.69;5005920;28;20038;-63
2021/03/29 09:52:13;;;;;;;15.77;5.72;;;;;;;21.53;27.84;98313.53;4998921;28;20053;-63
2021/03/29 09:54:46;;;;;;;8.05;3.15;;;;;;;21.66;27.21;98325.88;5004484;28;20115;-63
2021/03/29 09:57:21;;;;;;;7.70;2.90;;;;;;;21.12;28.17;98327.84;4997754;28;20050;-63
2021/03/29 09:59:48;;;;;;;8.52;3.47;;;;;;;21.11;28.14;98329.84;5004917;28;20050;-64
2021/03/29 10:02:23;;;;;;;10.00;2.60;;;;;;;21.00;27.79;98320.69;5009639;28;20046;-63
2021/03/29 10:05:00;;;;;;;4.80;3.05;;;;;;;19.23;31.14;98319.09;5021286;28;20037;-63
2021/03/29 10:07:25;;;;;;;4.78;2.38;;;;;;;19.89;29.97;98323.13;5015889;28;20076;-62
2021/03/29 10:09:59;;;;;;;8.30;3.00;;;;;;;19.62;31.15;98315.00;5005478;28;20080;-64
2021/03/29 10:12:29;;;;;;;5.28;2.33;;;;;;;20.59;29.18;98318.22;4999374;28;20226;-63
2021/03/29 10:15:12;;;;;;;5.93;3.22;;;;;;;19.45;30.54;98311.72;5004892;28;20038;-63
2021/03/29 10:17:38;;;;;;;5.55;2.95;;;;;;;20.29;30.32;98313.75;5003679;28;20042;-63
2021/03/29 10:20:09;;;;;;;6.32;3.00;;;;;;;20.98;29.27;98311.94;5000876;28;20718;-59
2021/03/29 10:22:34;;;;;;;7.72;2.85;;;;;;;21.24;29.31;98307.16;5000787;28;20053;-63
2021/03/29 10:25:24;;;;;;;6.18;3.08;;;;;;;19.98;31.71;98302.09;5004151;28;20042;-63
2021/03/29 10:27:52;;;;;;;5.93;2.65;;;;;;;20.75;30.35;98303.97;5003216;28;20447;-63
2021/03/29 10:30:17;;;;;;;5.32;2.72;;;;;;;21.37;29.49;98291.63;4998774;28;20080;-63
2021/03/29 10:32:43;;;;;;;7.43;2.80;;;;;;;21.20;29.37;98296.81;5004415;28;20037;-62
2021/03/29 10:35:09;;;;;;;9.07;2.92;;;;;;;21.08;30.23;98288.84;4981821;28;20100;-63
2021/03/29 10:37:34;;;;;;;8.45;2.85;;;;;;;21.56;29.26;98294.00;5002986;28;20049;-63
2021/03/29 10:40:01;;;;;;;5.43;2.95;;;;;;;20.90;30.12;98293.63;5004430;28;20042;-63
2021/03/29 10:42:31;;;;;;;6.53;3.13;;;;;;;20.06;32.07;98297.41;4994848;28;20101;-63
2021/03/29 10:44:56;;;;;;;9.63;3.85;;;;;;;20.15;31.82;98299.78;5003698;28;20057;-62
2021/03/29 10:47:23;;;;;;;8.27;3.45;;;;;;;20.33;31.09;98295.09;4981064;28;20498;-63
2021/03/29 10:49:49;;;;;;;7.10;3.13;;;;;;;20.14;32.30;98304.56;5001201;28;20073;-63
2021/03/29 10:52:16;;;;;;;7.40;3.92;;;;;;;19.88;32.43;98299.28;4998205;28;20096;-63
2021/03/29 10:54:42;;;;;;;5.75;2.88;;;;;;;20.12;31.89;98293.03;5004204;28;20445;-62
2021/03/29 10:57:08;;;;;;;9.68;3.97;;;;;;;20.64;30.57;98283.69;4998478;28;20068;-62
2021/03/29 10:59:33;;;;;;;8.18;3.10;;;;;;;21.06;29.56;98284.88;5004314;28;20073;-62
2021/03/29 11:01:59;;;;;;;9.40;3.00;;;;;;;20.89;30.09;98284.50;5004062;28;20517;-62
2021/03/29 11:04:26;;;;;;;5.90;2.95;;;;;;;20.01;30.69;98281.06;4997807;28;20557;-62
2021/03/29 11:06:51;;;;;;;7.10;3.50;;;;;;;20.70;30.99;98293.22;4989165;28;20073;-62
2021/03/29 11:09:17;;;;;;;8.05;4.03;;;;;;;20.75;31.04;98287.25;4997334;28;20042;-63
2021/03/29 11:11:42;;;;;;;7.25;2.90;;;;;;;19.93;32.44;98276.66;5017356;28;20056;-62
2021/03/29 11:14:08;;;;;;;7.78;3.72;;;;;;;19.55;33.51;98274.06;4999246;28;20042;-63
2021/03/29 11:16:34;;;;;;;4.70;2.88;;;;;;;19.38;33.57;98272.78;5004679;28;20054;-63
2021/03/29 11:18:59;;;;;;;6.13;3.30;;;;;;;19.27;34.54;98281.03;5004065;28;20038;-63
2021/03/29 11:21:25;;;;;;;8.05;4.35;;;;;;;18.61;36.82;98285.59;4999616;28;20042;-63
2021/03/29 11:23:51;;;;;;;6.90;3.75;;;;;;;18.22;37.46;98281.25;4995725;28;20050;-64
2021/03/29 11:26:16;;;;;;;8.82;4.20;;;;;;;18.48;37.23;98287.88;5011056;28;20041;-63
2021/03/29 11:28:42;;;;;;;10.00;4.10;;;;;;;18.13;36.53;98278.78;5005857;28;20104;-67
2021/03/29 11:31:08;;;;;;;7.82;3.33;;;;;;;17.61;37.35;98282.41;4998727;28;20038;-62
2021/03/29 11:33:33;;;;;;;4.55;3.33;;;;;;;18.14;36.34;98274.03;5002577;28;20482;-61
2021/03/29 11:35:59;;;;;;;5.80;3.05;;;;;;;18.50;35.41;98268.84;5001273;28;20038;-62
2021/03/29 11:38:25;;;;;;;6.72;3.22;;;;;;;19.27;34.06;98266.34;4996992;28;20042;-64
2021/03/29 11:40:50;;;;;;;7.03;4.32;;;;;;;19.67;33.47;98270.94;5003148;28;20625;-64
2021/03/29 11:43:16;;;;;;;7.47;3.65;;;;;;;19.88;33.03;98265.91;4997840;28;20112;-64
2021/03/29 11:45:42;;;;;;;9.25;3.67;;;;;;;19.62;32.53;98270.53;5001677;28;20422;-64